Time;durP1;ratioP1;P1;durP2;ratioP2;P2;SDS_P1;SDS_P2;PMS_P1;PMS_P2;Temp;Humidity;BMP_temperature;BMP_pressure;BME280_temperature;BME280_humidity;BME280_pressure;Samples;Min_cycle;Max_cycle;Signal;HPM_P1;HPM_P2
2022/08/13 00:02:24;;;;;;;6.47;3.33;;;;;;;18.10;71.08;101445.19;5224364;28;20026;-73
2022/08/13 00:05:01;;;;;;;7.22;3.30;;;;;;;18.17;70.03;101443.53;5201270;28;20111;-73
2022/08/13 00:07:32;;;;;;;10.38;3.80;;;;;;;18.08;71.44;101443.59;5208084;28;20032;-74
2022/08/13 00:10:10;;;;;;;5.93;3.58;;;;;;;17.99;70.49;101448.09;5209693;28;20026;-73
2022/08/13 00:12:57;;;;;;;5.57;3.35;;;;;;;18.00;72.13;101444.38;5211526;28;20041;-73
2022/08/13 00:15:35;;;;;;;8.43;3.40;;;;;;;17.98;72.39;101454.47;5206883;28;20062;-73
2022/08/13 00:18:10;;;;;;;6.20;3.67;;;;;;;17.90;73.75;101446.28;5207723;28;20032;-73
2022/08/13 00:20:48;;;;;;;7.18;3.45;;;;;;;17.82;71.22;101445.13;5211037;28;20045;-73
2022/08/13 00:23:22;;;;;;;6.68;3.53;;;;;;;17.89;74.60;101444.56;5205424;28;20030;-73
2022/08/13 00:25:55;;;;;;;;;;;;;;;17.98;70.02;101447.22;5219972;28;20076;-73
2022/08/13 00:28:28;;;;;;;6.80;3.70;;;;;;;17.76;72.42;101448.44;5214214;28;20706;-73
2022/08/13 00:30:59;;;;;;;6.90;3.38;;;;;;;17.75;72.32;101443.19;5205124;28;20030;-73
2022/08/13 00:33:31;;;;;;;6.63;3.33;;;;;;;17.71;73.93;101445.34;5212835;28;20174;-73
2022/08/13 00:36:04;;;;;;;6.07;3.88;;;;;;;17.60;71.25;101448.22;5214892;28;20082;-72
2022/08/13 00:38:35;;;;;;;6.32;3.92;;;;;;;17.69;75.37;101438.41;5229179;28;20725;-73
2022/08/13 00:41:08;;;;;;;6.18;3.90;;;;;;;17.58;71.21;101445.66;5214531;28;20036;-73
2022/08/13 00:43:39;;;;;;;5.65;3.10;;;;;;;17.56;68.23;101444.13;5205129;28;20484;-73
2022/08/13 00:46:13;;;;;;;7.85;3.97;;;;;;;17.55;73.12;101453.25;5255215;28;20089;-73
2022/08/13 00:48:46;;;;;;;7.15;3.92;;;;;;;17.55;76.31;101447.84;5200768;28;20038;-73
2022/08/13 00:51:22;;;;;;;4.55;3.20;;;;;;;17.47;74.39;101455.81;5203276;28;20038;-73
2022/08/13 00:53:58;;;;;;;4.40;3.20;;;;;;;17.41;72.88;101454.53;5206741;28;20040;-73
2022/08/13 00:56:33;;;;;;;5.07;3.08;;;;;;;17.39;74.28;101457.41;5208231;28;20115;-73
2022/08/13 00:59:13;;;;;;;4.97;3.45;;;;;;;17.36;74.48;101444.22;5206890;28;20037;-73
2022/08/13 01:01:46;;;;;;;4.82;3.47;;;;;;;17.30;74.36;101452.91;5205668;28;20026;-73
2022/08/13 01:04:21;;;;;;;5.72;3.85;;;;;;;17.29;74.32;101453.88;5212186;28;20396;-73
2022/08/13 01:06:54;;;;;;;6.43;3.47;;;;;;;17.23;73.73;101452.63;5204404;28;20566;-72
2022/08/13 01:09:29;;;;;;;6.15;3.60;;;;;;;17.19;74.86;101453.91;5223530;28;20152;-73
2022/08/13 01:12:01;;;;;;;5.50;3.33;;;;;;;17.18;76.09;101456.75;5240397;28;20034;-73
2022/08/13 01:14:33;;;;;;;5.40;3.40;;;;;;;17.15;73.98;101451.66;5201260;28;20115;-73
2022/08/13 01:17:05;;;;;;;4.78;3.20;;;;;;;17.10;72.50;101452.06;5213999;28;20030;-73
2022/08/13 01:19:36;;;;;;;7.70;3.47;;;;;;;17.10;75.55;101456.63;5210439;28;20034;-73
2022/08/13 01:22:08;;;;;;;5.85;3.60;;;;;;;17.06;75.97;101453.38;5201684;27;20042;-73
2022/08/13 01:24:41;;;;;;;7.00;3.70;;;;;;;17.04;73.02;101449.97;5205528;28;20051;-72
2022/08/13 01:27:13;;;;;;;7.95;3.95;;;;;;;17.07;78.41;101448.81;5207254;28;20034;-73
2022/08/13 01:29:47;;;;;;;7.35;4.18;;;;;;;16.99;74.76;101453.09;5212715;28;20053;-73
2022/08/13 01:32:21;;;;;;;6.93;3.67;;;;;;;16.93;75.41;101453.69;5203229;28;20475;-73
2022/08/13 01:34:52;;;;;;;5.28;3.67;;;;;;;16.89;73.27;101446.03;5208296;28;20551;-73
2022/08/13 01:37:24;;;;;;;5.35;3.40;;;;;;;16.90;76.55;101462.06;5219372;28;20130;-73
2022/08/13 01:39:55;;;;;;;5.43;3.67;;;;;;;16.88;74.94;101444.34;5205951;28;20030;-73
2022/08/13 01:42:27;;;;;;;5.97;3.47;;;;;;;16.85;76.36;101461.63;5200539;28;20062;-73
2022/08/13 01:44:59;;;;;;;7.38;4.25;;;;;;;16.85;78.04;101454.38;5214576;28;20083;-72
2022/08/13 01:50:29;;;;;;;5.70;3.83;;;;;;;16.74;76.37;101448.25;5207799;28;20033;-72
2022/08/13 01:53:07;;;;;;;6.65;3.80;;;;;;;16.75;76.81;101449.97;5217083;28;20107;-73
2022/08/13 01:56:05;;;;;;;7.30;4.63;;;;;;;16.76;76.42;101444.44;5212002;28;20025;-73
2022/08/13 01:58:36;;;;;;;6.95;4.13;;;;;;;16.69;78.58;101446.00;5204498;28;20045;-73
2022/08/13 02:01:07;;;;;;;6.25;4.30;;;;;;;16.65;76.93;101450.00;5201983;28;20121;-73
2022/08/13 02:03:40;;;;;;;7.68;4.20;;;;;;;16.61;77.34;101445.88;5212112;28;20018;-72
2022/08/13 02:06:12;;;;;;;8.00;4.70;;;;;;;16.64;77.41;101453.66;5213824;28;20472;-73
2022/08/13 02:08:43;;;;;;;8.82;4.80;;;;;;;16.58;78.37;101446.16;5213165;28;20040;-73
2022/08/13 02:11:15;;;;;;;6.93;4.45;;;;;;;16.49;75.63;101444.31;5214925;28;20038;-73
2022/08/13 02:13:48;;;;;;;7.40;4.53;;;;;;;16.52;78.11;101452.94;5208114;28;20026;-73
2022/08/13 02:16:20;;;;;;;7.07;4.75;;;;;;;16.46;77.62;101446.28;5205955;28;20026;-73
2022/08/13 02:18:53;;;;;;;6.20;4.50;;;;;;;16.50;79.47;101446.00;5210302;28;20079;-72
2022/08/13 02:21:25;;;;;;;7.00;4.53;;;;;;;16.43;79.78;101443.91;5205368;28;20036;-73
2022/08/13 02:23:58;;;;;;;7.10;4.50;;;;;;;16.41;79.38;101442.31;5204884;28;20308;-73
2022/08/13 02:26:37;;;;;;;6.15;4.35;;;;;;;16.41;79.84;101437.78;5218998;28;20057;-73
2022/08/13 02:29:09;;;;;;;9.43;4.93;;;;;;;16.34;77.38;101441.16;5219275;28;20028;-73
2022/08/13 02:31:44;;;;;;;6.90;4.70;;;;;;;16.37;80.55;101444.44;5199149;28;20032;-73
2022/08/13 02:34:16;;;;;;;6.80;4.60;;;;;;;16.27;78.79;101447.13;5203554;28;20120;-73
2022/08/13 02:36:48;;;;;;;9.77;4.88;;;;;;;16.27;79.38;101449.81;5208134;28;20026;-73
2022/08/13 02:39:19;;;;;;;7.55;4.45;;;;;;;16.21;79.87;101442.31;5207852;28;20725;-73
2022/08/13 02:41:54;;;;;;;8.18;4.75;;;;;;;16.22;81.70;101443.13;5202451;28;20460;-73
2022/08/13 02:44:26;;;;;;;8.20;5.15;;;;;;;16.17;80.70;101446.25;5195401;28;20122;-74
2022/08/13 02:46:57;;;;;;;5.75;4.57;;;;;;;16.20;80.33;101443.31;5216904;28;20796;-73
2022/08/13 02:49:28;;;;;;;6.03;4.68;;;;;;;16.14;79.52;101434.91;5214156;28;20091;-73
2022/08/13 02:51:59;;;;;;;6.43;5.05;;;;;;;16.07;79.46;101443.56;5216888;28;20354;-73
2022/08/13 02:54:33;;;;;;;7.97;5.07;;;;;;;16.03;77.10;101439.44;5207738;28;20550;-73
2022/08/13 02:57:04;;;;;;;6.83;4.90;;;;;;;16.07;80.27;101448.94;5226000;28;20038;-73
2022/08/13 02:59:36;;;;;;;8.68;5.20;;;;;;;16.00;79.76;101441.56;5205511;28;20728;-73
2022/08/13 03:02:10;;;;;;;10.50;5.10;;;;;;;15.99;79.98;101442.53;5203846;28;20476;-74
2022/08/13 03:04:45;;;;;;;10.07;5.13;;;;;;;15.95;80.39;101444.66;5232442;28;20031;-73
2022/08/13 03:07:19;;;;;;;9.32;5.45;;;;;;;15.90;79.73;101446.03;5248143;28;20521;-73
2022/08/13 03:09:50;;;;;;;;;;;;;;;16.04;77.81;101445.69;5201950;28;20061;-73
2022/08/13 03:12:22;;;;;;;9.50;5.43;;;;;;;15.91;80.17;101445.06;5226559;28;20512;-73
2022/08/13 03:14:55;;;;;;;7.53;5.20;;;;;;;15.90;81.12;101446.91;5207856;28;20027;-73
2022/08/13 03:17:26;;;;;;;7.10;4.93;;;;;;;15.88;81.77;101440.81;5199270;28;20035;-74
2022/08/13 03:19:58;;;;;;;7.43;5.60;;;;;;;15.88;81.89;101444.34;5212904;28;20118;-73
2022/08/13 03:22:29;;;;;;;8.27;5.32;;;;;;;15.84;81.90;101451.00;5230245;28;20037;-73
2022/08/13 03:25:00;;;;;;;9.40;5.47;;;;;;;15.79;79.45;101444.34;5246180;28;20171;-73
2022/08/13 03:27:32;;;;;;;10.27;6.05;;;;;;;15.73;79.81;101442.16;5202867;28;20475;-73
2022/08/13 03:30:04;;;;;;;8.52;5.38;;;;;;;15.73;82.18;101442.16;5203185;28;20181;-73
2022/08/13 03:32:40;;;;;;;6.55;5.82;;;;;;;15.69;81.27;101447.81;5203517;28;20042;-74
2022/08/13 03:35:15;;;;;;;11.35;5.93;;;;;;;15.64;80.47;101444.66;5208660;28;20028;-73
2022/08/13 03:37:49;;;;;;;9.07;6.10;;;;;;;15.68;82.77;101448.78;5206566;28;20543;-72
2022/08/13 03:40:23;;;;;;;10.10;5.90;;;;;;;15.60;81.74;101447.78;5205822;28;20033;-73
2022/08/13 03:43:07;;;;;;;9.05;5.82;;;;;;;15.70;84.04;101448.66;5200407;28;20042;-72
2022/08/13 03:45:39;;;;;;;9.80;5.68;;;;;;;15.62;83.54;101448.47;5199626;28;20033;-73
2022/08/13 03:48:13;;;;;;;8.43;5.60;;;;;;;15.54;82.68;101445.63;5206965;28;20033;-73
2022/08/13 03:50:46;;;;;;;15.02;6.20;;;;;;;15.49;81.46;101446.00;5204081;28;20033;-73
2022/08/13 03:53:20;;;;;;;10.50;5.50;;;;;;;15.51;82.06;101443.19;5205041;28;20024;-73
2022/08/13 03:55:51;;;;;;;;;;;;;;;15.60;79.95;101451.31;5227058;28;20034;-73
2022/08/13 03:58:24;;;;;;;11.43;5.93;;;;;;;15.48;83.27;101449.72;5209124;28;20018;-73
2022/08/13 04:00:56;;;;;;;12.05;6.07;;;;;;;15.38;81.42;101440.72;5231994;28;20057;-73
2022/08/13 04:03:30;;;;;;;8.52;6.20;;;;;;;15.41;83.95;101444.00;5233573;28;20041;-73
2022/08/13 04:06:08;;;;;;;8.93;6.38;;;;;;;15.40;84.31;101436.94;5206120;28;20068;-74
2022/08/13 04:08:39;;;;;;;10.15;6.13;;;;;;;15.35;82.29;101449.06;5209896;28;20046;-73
2022/08/13 04:11:14;;;;;;;8.20;6.07;;;;;;;15.38;84.83;101443.41;5232721;28;20730;-73
2022/08/13 04:13:46;;;;;;;9.43;6.47;;;;;;;15.33;85.37;101446.50;5210311;28;20717;-73
2022/08/13 04:16:22;;;;;;;15.55;6.47;;;;;;;15.27;84.35;101441.69;5210627;28;20110;-73
2022/08/13 04:18:54;;;;;;;10.15;6.53;;;;;;;15.25;82.02;101438.28;5205854;28;20605;-73
2022/08/13 04:21:30;;;;;;;14.93;6.72;;;;;;;15.21;82.25;101442.22;5210696;28;20032;-73
2022/08/13 04:24:03;;;;;;;11.50;6.50;;;;;;;15.20;83.92;101446.72;5217005;28;20033;-73
2022/08/13 04:26:35;;;;;;;8.73;7.10;;;;;;;15.22;85.16;101449.28;5213045;28;20030;-73
2022/08/13 04:29:08;;;;;;;9.65;6.80;;;;;;;15.15;83.18;101450.78;5210215;28;20033;-73
2022/08/13 04:31:39;;;;;;;8.07;5.97;;;;;;;15.17;83.40;101452.38;5203544;28;20018;-73
2022/08/13 04:34:10;;;;;;;11.38;6.70;;;;;;;15.16;85.04;101449.81;5213902;28;20053;-73
2022/08/13 04:36:42;;;;;;;9.27;7.07;;;;;;;15.12;84.74;101453.75;5208363;28;20051;-73
2022/08/13 04:39:14;;;;;;;10.13;7.70;;;;;;;15.12;85.84;101459.97;5206217;28;20030;-73
2022/08/13 04:41:45;;;;;;;10.63;6.95;;;;;;;15.12;84.88;101453.75;5202288;28;20057;-73
2022/08/13 04:44:17;;;;;;;11.48;7.75;;;;;;;15.14;86.60;101449.94;5200886;28;20113;-73
2022/08/13 04:46:48;;;;;;;8.75;6.55;;;;;;;15.13;86.79;101450.94;5201027;28;20715;-73
2022/08/13 04:49:19;;;;;;;9.80;6.80;;;;;;;15.13;86.29;101455.44;5219322;28;20543;-74
2022/08/13 04:51:51;;;;;;;9.98;6.63;;;;;;;15.06;85.00;101453.28;5217639;28;20028;-73
2022/08/13 04:54:22;;;;;;;9.93;7.35;;;;;;;15.14;87.48;101459.84;5212871;28;20034;-73
2022/08/13 04:56:53;;;;;;;8.52;6.43;;;;;;;15.12;87.49;101457.28;5205077;28;20108;-73
2022/08/13 04:59:24;;;;;;;8.65;6.20;;;;;;;15.12;87.49;101453.75;5204399;28;20458;-74
2022/08/13 05:01:56;;;;;;;10.93;6.63;;;;;;;15.10;86.70;101454.72;5208491;28;20533;-73
2022/08/13 05:04:27;;;;;;;12.50;6.55;;;;;;;15.12;86.60;101454.59;5201496;28;20040;-74
2022/08/13 05:06:58;;;;;;;9.25;6.47;;;;;;;15.17;87.40;101455.06;5200925;28;20531;-73
2022/08/13 05:09:29;;;;;;;11.40;7.00;;;;;;;15.09;83.65;101460.22;5232196;28;20057;-72
2022/08/13 05:12:01;;;;;;;8.93;6.70;;;;;;;15.13;86.57;101460.81;5210071;28;20026;-73
2022/08/13 05:14:33;;;;;;;11.35;7.20;;;;;;;15.16;87.83;101465.94;5207131;28;20124;-73
2022/08/13 05:17:05;;;;;;;11.88;7.43;;;;;;;15.21;88.67;101463.72;5218302;28;20027;-73
2022/08/13 05:19:36;;;;;;;11.48;7.22;;;;;;;15.17;86.06;101468.50;5209439;28;20088;-73
2022/08/13 05:22:08;;;;;;;8.80;6.93;;;;;;;15.15;86.81;101467.78;5215293;28;20055;-73
2022/08/13 05:24:40;;;;;;;8.95;6.85;;;;;;;15.26;89.54;101472.22;5262158;28;20057;-73
2022/08/13 05:27:13;;;;;;;10.25;6.72;;;;;;;15.21;87.38;101467.25;5204699;28;20488;-73
2022/08/13 05:29:45;;;;;;;10.65;7.45;;;;;;;15.20;87.27;101470.91;5214713;28;20086;-73
2022/08/13 05:32:16;;;;;;;9.32;6.63;;;;;;;15.22;86.99;101476.16;5234390;28;20431;-73
2022/08/13 05:34:48;;;;;;;10.95;6.70;;;;;;;15.25;86.08;101467.84;5211454;28;20024;-72
2022/08/13 05:37:19;;;;;;;12.30;6.80;;;;;;;15.28;88.85;101465.75;5215232;28;20529;-73
2022/08/13 05:39:50;;;;;;;9.45;7.22;;;;;;;15.29;89.26;101472.81;5224538;28;20030;-72
2022/08/13 05:42:22;;;;;;;9.00;6.53;;;;;;;15.35;86.56;101466.06;5214940;28;20064;-73
2022/08/13 05:44:56;;;;;;;8.38;6.90;;;;;;;15.32;88.29;101468.16;5217108;28;20163;-73
2022/08/13 05:47:28;;;;;;;8.68;7.80;;;;;;;15.47;90.95;101469.50;5219813;28;20083;-73
2022/08/13 05:49:59;;;;;;;11.15;6.75;;;;;;;15.33;84.12;101470.72;5211608;28;20168;-72
2022/08/13 05:52:35;;;;;;;11.23;7.28;;;;;;;15.37;87.65;101469.47;5231457;28;20480;-73
2022/08/13 05:55:11;;;;;;;9.38;7.00;;;;;;;15.46;89.13;101471.34;5206979;28;20489;-73
2022/08/13 05:57:42;;;;;;;7.68;6.80;;;;;;;15.41;86.50;101465.50;5210469;28;20030;-73
2022/08/13 06:06:02;;;;;;;8.27;6.50;;;;;;;15.61;90.69;101460.22;5201512;28;20053;-73
2022/08/13 06:08:36;;;;;;;8.30;6.05;;;;;;;15.61;90.05;101462.91;5202900;28;20022;-73
2022/08/13 06:11:17;;;;;;;9.07;5.90;;;;;;;15.68;88.72;101477.53;5218783;28;20357;-73
2022/08/13 06:13:48;;;;;;;10.98;5.70;;;;;;;15.72;89.88;101467.34;5210378;28;20041;-73
2022/08/13 06:16:21;;;;;;;9.00;6.20;;;;;;;15.82;92.94;101469.13;5208959;28;20039;-72
2022/08/13 06:18:52;;;;;;;8.98;6.07;;;;;;;15.76;91.14;101467.00;5211342;28;20061;-72
2022/08/13 06:21:25;;;;;;;8.52;5.75;;;;;;;15.87;91.58;101469.56;5208986;28;20022;-72
2022/08/13 06:23:56;;;;;;;10.27;5.57;;;;;;;15.83;89.39;101467.28;5209624;28;20468;-72
2022/08/13 06:26:29;;;;;;;7.50;5.68;;;;;;;15.95;94.23;101459.94;5209483;28;20033;-73
2022/08/13 06:29:01;;;;;;;9.35;5.32;;;;;;;15.95;91.34;101462.63;5203018;28;20038;-72
2022/08/13 06:31:38;;;;;;;8.65;5.30;;;;;;;16.08;85.62;101471.31;5206943;28;20030;-72
2022/08/13 06:34:10;;;;;;;12.35;4.57;;;;;;;16.12;86.90;101464.66;5211080;28;20038;-73
2022/08/13 06:36:41;;;;;;;10.30;5.85;;;;;;;16.08;88.65;101468.63;5207779;28;20034;-73
2022/08/13 06:39:14;;;;;;;12.07;5.35;;;;;;;16.31;83.81;101473.78;5211871;28;20061;-73
2022/08/13 06:41:47;;;;;;;8.23;4.57;;;;;;;16.33;83.30;101475.34;5207221;28;20480;-73
2022/08/13 06:44:19;;;;;;;7.68;4.85;;;;;;;16.43;83.65;101475.34;5209411;28;20037;-72
2022/08/13 06:46:52;;;;;;;6.72;4.93;;;;;;;16.41;87.74;101470.09;5208714;28;20094;-72
2022/08/13 06:49:23;;;;;;;10.45;5.20;;;;;;;16.44;89.07;101469.81;5211091;28;20145;-72
2022/08/13 06:51:56;;;;;;;7.10;5.40;;;;;;;16.55;88.09;101468.84;5208287;28;20030;-73
2022/08/13 06:54:28;;;;;;;7.40;5.10;;;;;;;16.73;81.71;101478.91;5203928;28;20022;-72
2022/08/13 06:57:01;;;;;;;11.95;5.35;;;;;;;16.78;88.15;101476.63;5207080;28;20037;-72
2022/08/13 06:59:39;;;;;;;15.45;5.40;;;;;;;16.94;82.50;101471.56;5206958;28;20065;-72
2022/08/13 07:02:17;;;;;;;8.80;4.45;;;;;;;17.02;80.26;101479.75;5206181;28;20040;-72
2022/08/13 07:04:54;;;;;;;7.82;4.45;;;;;;;17.12;81.39;101478.91;5204851;28;20057;-72
2022/08/13 07:07:26;;;;;;;11.10;5.38;;;;;;;17.39;78.66;101487.09;5207642;28;20119;-72
2022/08/13 07:09:58;;;;;;;9.55;4.45;;;;;;;17.58;76.61;101475.34;5206050;28;20395;-72
2022/08/13 07:12:31;;;;;;;8.43;4.40;;;;;;;17.69;77.91;101484.28;5207371;28;20483;-73
2022/08/13 07:15:02;;;;;;;9.48;3.95;;;;;;;17.94;72.09;101480.06;5198327;28;20116;-73
2022/08/13 07:17:34;;;;;;;9.85;4.32;;;;;;;18.28;70.18;101480.31;5208093;28;20078;-73
2022/08/13 07:20:06;;;;;;;7.00;4.30;;;;;;;18.37;71.08;101484.78;5208592;28;20487;-73
2022/08/13 07:22:38;;;;;;;6.25;4.10;;;;;;;18.45;71.11;101485.84;5205023;28;20037;-73
2022/08/13 07:25:10;;;;;;;6.22;3.38;;;;;;;18.76;69.44;101480.94;5203958;28;20057;-70
2022/08/13 07:27:43;;;;;;;7.75;3.55;;;;;;;18.83;69.09;101481.19;5208305;28;20034;-70
2022/08/13 07:30:15;;;;;;;12.88;4.40;;;;;;;19.01;67.73;101487.44;5207174;28;20033;-70
2022/08/13 07:32:47;;;;;;;5.90;3.50;;;;;;;19.14;66.78;101478.91;5204835;28;20026;-69
2022/08/13 07:35:18;;;;;;;6.45;3.13;;;;;;;19.27;66.08;101483.88;5207907;28;20029;-70
2022/08/13 07:37:50;;;;;;;6.57;3.50;;;;;;;19.64;65.40;101488.19;5209643;28;20040;-70
2022/08/13 07:40:22;;;;;;;8.98;3.13;;;;;;;19.74;65.15;101488.94;5213754;28;20022;-70
2022/08/13 07:42:56;;;;;;;5.03;3.22;;;;;;;19.87;63.15;101491.22;5206131;28;20057;-70
2022/08/13 07:45:27;;;;;;;4.90;2.95;;;;;;;20.11;64.10;101490.44;5223143;28;20497;-70
2022/08/13 07:47:58;;;;;;;5.57;2.90;;;;;;;20.06;64.18;101490.06;5210570;28;20022;-70
2022/08/13 07:50:33;;;;;;;7.30;3.10;;;;;;;20.36;62.35;101485.94;5214092;28;20026;-70
2022/08/13 07:53:05;;;;;;;7.03;3.22;;;;;;;20.72;59.81;101491.94;5211529;28;20029;-70
2022/08/13 07:55:37;;;;;;;7.18;2.80;;;;;;;20.74;61.99;101483.66;5209857;28;20088;-69
2022/08/13 07:58:08;;;;;;;5.70;2.90;;;;;;;20.82;61.48;101491.78;5211964;28;20038;-70
2022/08/13 08:00:39;;;;;;;8.13;2.80;;;;;;;21.15;60.02;101491.75;5208660;28;20091;-70
2022/08/13 08:03:12;;;;;;;8.75;2.63;;;;;;;21.08;59.25;101491.59;5209454;28;20025;-70
2022/08/13 08:05:45;;;;;;;5.75;2.60;;;;;;;21.25;58.61;101487.00;5215293;28;20029;-70
2022/08/13 08:08:16;;;;;;;6.55;2.30;;;;;;;21.47;56.57;101490.06;5210307;28;20458;-70
2022/08/13 08:10:47;;;;;;;5.45;2.70;;;;;;;21.53;57.47;101494.78;5211394;28;20026;-70
2022/08/13 08:13:20;;;;;;;4.78;2.45;;;;;;;21.70;57.16;101490.16;5211705;28;20113;-71
2022/08/13 08:15:51;;;;;;;5.65;2.42;;;;;;;21.82;57.05;101502.34;5204505;28;20498;-71
2022/08/13 08:18:24;;;;;;;5.47;2.08;;;;;;;21.95;55.99;101499.06;5211853;28;20033;-70
2022/08/13 08:21:04;;;;;;;8.85;2.30;;;;;;;22.10;55.80;101500.00;5211935;28;20025;-71
2022/08/13 08:23:35;;;;;;;7.05;2.33;;;;;;;22.30;54.55;101507.75;5210260;28;20460;-69
2022/08/13 08:26:09;;;;;;;5.55;2.70;;;;;;;22.61;50.99;101499.56;5212110;28;20053;-69
2022/08/13 08:28:41;;;;;;;5.32;2.35;;;;;;;22.75;51.07;101499.81;5210367;28;20025;-70
2022/08/13 08:31:12;;;;;;;5.50;2.17;;;;;;;22.89;52.79;101496.28;5212170;28;20038;-70
2022/08/13 08:33:44;;;;;;;6.57;2.28;;;;;;;22.89;50.68;101494.41;5212164;28;20484;-70
2022/08/13 08:36:16;;;;;;;6.95;2.20;;;;;;;22.90;49.11;101495.28;5207136;28;20371;-70
2022/08/13 08:44:33;;;;;;;4.82;1.98;;;;;;;23.25;52.38;101498.41;5206979;28;20062;-70
2022/08/13 08:47:07;;;;;;;7.20;2.10;;;;;;;23.42;49.04;101502.63;5210388;28;20352;-70
2022/08/13 08:49:39;;;;;;;3.63;2.10;;;;;;;23.64;48.59;101498.16;5212171;28;20083;-70
2022/08/13 08:52:12;;;;;;;5.32;2.25;;;;;;;23.63;47.88;101501.91;5208523;28;20030;-70
2022/08/13 08:54:45;;;;;;;3.80;2.10;;;;;;;23.80;49.92;101491.69;5213442;28;20036;-70
2022/08/13 08:57:18;;;;;;;5.18;2.10;;;;;;;23.93;49.20;101498.34;5212906;28;20065;-70
2022/08/13 08:59:49;;;;;;;7.22;2.10;;;;;;;23.91;48.64;101498.53;5210115;28;20022;-70
2022/08/13 09:02:24;;;;;;;4.07;1.90;;;;;;;24.11;48.37;101489.78;5205543;28;20037;-69
2022/08/13 09:04:56;;;;;;;5.55;1.90;;;;;;;24.06;47.99;101487.59;5204917;28;20479;-69
2022/08/13 09:07:29;;;;;;;4.10;2.05;;;;;;;24.18;47.81;101491.53;5210811;28;20037;-69
2022/08/13 09:10:00;;;;;;;6.47;2.38;;;;;;;24.27;48.72;101489.53;5210065;28;20029;-69
2022/08/13 09:12:32;;;;;;;7.22;2.25;;;;;;;24.30;50.90;101488.28;5211228;28;20026;-69
2022/08/13 09:15:04;;;;;;;4.60;2.00;;;;;;;24.47;46.56;101484.31;5210959;28;20090;-69
2022/08/13 09:17:37;;;;;;;5.88;1.90;;;;;;;24.84;46.19;101494.13;5212019;28;20569;-69
2022/08/13 09:20:12;;;;;;;5.72;2.05;;;;;;;24.98;46.13;101483.34;5209512;28;20029;-69
2022/08/13 09:22:46;;;;;;;4.25;1.77;;;;;;;25.15;45.03;101484.72;5211567;28;20117;-70
2022/08/13 09:25:18;;;;;;;5.82;1.77;;;;;;;25.15;45.75;101479.28;5210445;28;20392;-70
2022/08/13 09:27:51;;;;;;;5.53;2.20;;;;;;;25.24;43.67;101478.13;5209247;28;20026;-69
2022/08/13 09:30:23;;;;;;;5.70;2.10;;;;;;;25.31;44.90;101480.03;5210211;28;20085;-69
2022/08/13 09:32:57;;;;;;;4.43;1.60;;;;;;;25.52;44.68;101479.13;5204972;28;20054;-69
2022/08/13 09:35:30;;;;;;;5.55;1.80;;;;;;;25.50;44.27;101482.06;5208576;28;20495;-70
2022/08/13 09:38:06;;;;;;;4.00;1.90;;;;;;;25.63;43.88;101479.41;5205673;28;20411;-69
2022/08/13 09:40:45;;;;;;;5.35;2.00;;;;;;;25.72;42.56;101482.00;5202698;28;20030;-70
2022/08/13 09:43:20;;;;;;;3.28;1.70;;;;;;;25.90;43.50;101478.69;5202460;28;20050;-70
2022/08/13 09:45:51;;;;;;;6.10;2.00;;;;;;;25.92;44.29;101476.63;5203404;28;20487;-68
2022/08/13 09:48:24;;;;;;;6.30;1.90;;;;;;;26.11;42.45;101480.50;5211987;28;20029;-67
2022/08/13 09:50:56;;;;;;;4.93;1.83;;;;;;;26.04;41.63;101482.38;5210040;28;20441;-68
2022/08/13 09:53:27;;;;;;;4.05;1.70;;;;;;;26.10;42.40;101476.94;5209256;28;20025;-69
2022/08/13 09:55:59;;;;;;;4.07;1.67;;;;;;;26.29;42.50;101472.56;5209294;28;20510;-68
2022/08/13 09:58:32;;;;;;;3.30;1.38;;;;;;;26.24;42.99;101469.59;5210359;28;20034;-68
2022/08/13 10:01:03;;;;;;;4.00;1.67;;;;;;;26.35;39.55;101465.44;5209878;28;20499;-69
2022/08/13 10:03:38;;;;;;;5.13;1.42;;;;;;;26.54;41.15;101463.75;5207773;28;20526;-69
2022/08/13 10:06:10;;;;;;;4.47;1.48;;;;;;;26.55;38.80;101463.56;5206672;28;20065;-68
2022/08/13 10:08:41;;;;;;;7.03;1.70;;;;;;;26.82;39.62;101451.81;5201190;28;20112;-69
2022/08/13 10:11:16;;;;;;;3.15;1.42;;;;;;;26.79;39.86;101451.19;5202786;28;20033;-68
2022/08/13 10:13:49;;;;;;;2.88;1.38;;;;;;;26.96;37.66;101453.50;5203125;28;20379;-68
2022/08/13 10:16:23;;;;;;;4.43;1.33;;;;;;;26.91;37.68;101445.94;5202879;28;20383;-68
2022/08/13 10:18:55;;;;;;;3.30;1.25;;;;;;;27.09;37.05;101442.53;5203504;28;20068;-69
2022/08/13 10:21:26;;;;;;;3.42;1.50;;;;;;;27.23;36.86;101445.25;5205828;28;20480;-68
2022/08/13 10:23:57;;;;;;;4.07;1.38;;;;;;;27.18;36.77;101437.69;5203820;28;20030;-68
2022/08/13 10:26:29;;;;;;;3.50;1.02;;;;;;;27.40;36.53;101440.19;5204370;28;20022;-68
2022/08/13 10:29:00;;;;;;;3.67;1.15;;;;;;;27.35;37.15;101438.94;5225970;28;20395;-68
2022/08/13 10:31:31;;;;;;;3.63;1.05;;;;;;;27.34;35.98;101442.72;5202829;28;20109;-69
2022/08/13 10:34:04;;;;;;;3.67;1.10;;;;;;;27.46;36.26;101437.44;5209196;28;20033;-69
2022/08/13 10:36:35;;;;;;;3.13;1.20;;;;;;;27.44;35.79;101434.09;5206962;28;20037;-68
2022/08/13 10:39:07;;;;;;;2.85;1.27;;;;;;;27.80;34.77;101437.31;5212241;28;20357;-68
2022/08/13 10:41:43;;;;;;;2.33;1.20;;;;;;;27.77;35.25;101441.34;5211046;28;20467;-68
2022/08/13 10:44:14;;;;;;;2.60;1.42;;;;;;;27.71;31.23;101426.59;5205964;28;20986;-68
2022/08/13 10:46:48;;;;;;;2.85;1.20;;;;;;;27.89;33.58;101428.66;5206389;28;20026;-69
2022/08/13 10:49:20;;;;;;;;;;;;;;;27.74;37.10;101425.31;5210251;28;20018;-69
2022/08/13 10:51:51;;;;;;;5.10;1.17;;;;;;;27.90;34.49;101430.34;5207772;28;19917;-69
2022/08/13 10:54:25;;;;;;;2.22;1.10;;;;;;;27.92;33.75;101428.22;5204161;28;20110;-69
2022/08/13 10:56:56;;;;;;;2.17;1.10;;;;;;;27.72;36.06;101428.28;5207798;28;20098;-69
2022/08/13 10:59:27;;;;;;;6.22;1.15;;;;;;;28.17;34.65;101424.72;5203999;28;20033;-69
2022/08/13 11:01:59;;;;;;;4.53;1.58;;;;;;;28.29;33.60;101422.94;5209363;28;20022;-68
2022/08/13 11:04:30;;;;;;;3.97;1.10;;;;;;;28.24;33.89;101419.19;5206235;28;20061;-69
2022/08/13 11:07:10;;;;;;;4.20;0.98;;;;;;;28.43;33.08;101423.69;5207592;28;20369;-69
2022/08/13 11:09:41;;;;;;;4.32;1.30;;;;;;;28.28;33.36;101425.91;5208741;28;20030;-69
2022/08/13 11:12:12;;;;;;;2.80;1.15;;;;;;;28.40;33.02;101420.53;5200722;28;20037;-69
2022/08/13 11:14:46;;;;;;;4.00;1.20;;;;;;;28.64;33.28;101421.66;5211043;28;20101;-68
2022/08/13 11:17:18;;;;;;;2.70;1.52;;;;;;;28.68;31.99;101422.91;5211387;28;20026;-68
2022/08/13 11:19:50;;;;;;;5.07;1.10;;;;;;;28.64;33.03;101425.25;5209928;28;20082;-68
2022/08/13 11:22:28;;;;;;;3.35;1.08;;;;;;;28.72;30.38;101419.47;5209887;28;20030;-68
2022/08/13 11:25:00;;;;;;;3.55;1.20;;;;;;;28.83;30.37;101414.34;5209047;28;20038;-69
2022/08/13 11:27:33;;;;;;;2.75;1.10;;;;;;;28.62;31.04;101402.66;5211011;28;20030;-68
2022/08/13 11:30:04;;;;;;;2.90;1.00;;;;;;;28.94;30.41;101395.19;5209654;28;20029;-69
2022/08/13 11:32:36;;;;;;;2.08;1.00;;;;;;;28.60;34.55;101398.47;5211957;28;20495;-68
2022/08/13 11:35:09;;;;;;;2.88;0.90;;;;;;;28.77;31.48;101396.00;5204179;28;20054;-69
2022/08/13 11:37:40;;;;;;;2.72;1.08;;;;;;;28.90;32.38;101402.22;5213389;28;20038;-69
2022/08/13 11:40:12;;;;;;;4.70;1.23;;;;;;;28.76;34.50;101395.16;5208167;28;20034;-69
2022/08/13 11:42:43;;;;;;;2.75;1.00;;;;;;;28.89;31.38;101399.69;5211451;28;20503;-69
2022/08/13 11:45:14;;;;;;;3.25;1.30;;;;;;;28.95;30.24;101398.78;5209798;28;20160;-69
2022/08/13 11:47:46;;;;;;;3.20;1.02;;;;;;;28.89;31.66;101396.94;5204854;28;20045;-69
2022/08/13 11:50:17;;;;;;;3.25;1.10;;;;;;;29.11;30.51;101389.97;5211608;28;20387;-69
2022/08/13 11:52:48;;;;;;;4.35;1.00;;;;;;;29.07;31.06;101380.50;5205578;28;20570;-69
2022/08/13 11:55:19;;;;;;;2.35;1.20;;;;;;;29.16;30.52;101394.78;5211298;28;20518;-69
2022/08/13 11:58:02;;;;;;;2.13;1.17;;;;;;;29.17;30.71;101390.13;5208164;28;20037;-69
2022/08/13 12:00:34;;;;;;;6.30;1.40;;;;;;;29.41;29.19;101391.97;5209119;28;20043;-69
2022/08/13 12:03:06;;;;;;;5.07;1.30;;;;;;;29.46;29.79;101392.13;5209890;28;20030;-69
2022/08/13 12:05:38;;;;;;;2.22;1.10;;;;;;;29.23;30.55;101386.50;5207172;28;20034;-69